Time;durP1;ratioP1;P1;durP2;ratioP2;P2;SDS_P1;SDS_P2;PMS_P1;PMS_P2;Temp;Humidity;BMP_temperature;BMP_pressure;BME280_temperature;BME280_humidity;BME280_pressure;Samples;Min_cycle;Max_cycle;Signal;HPM_P1;HPM_P2
2023/02/16 00:00:48;;;;;;;18.63;10.50;;;0.30;99.90;;;1.02;100.00;99178.66;5004936;28;20464;-81
2023/02/16 00:03:22;;;;;;;15.77;9.93;;;0.30;99.90;;;0.99;100.00;99184.03;5002644;28;20459;-81
2023/02/16 00:05:52;;;;;;;13.03;7.83;;;0.20;99.90;;;0.97;100.00;99185.88;5002784;28;20509;-81
2023/02/16 00:08:21;;;;;;;20.77;10.07;;;0.20;99.90;;;0.95;100.00;99169.69;5001112;28;20472;-81
2023/02/16 00:13:51;;;;;;;15.03;8.87;;;0.20;99.90;;;0.94;100.00;99170.59;4989482;28;20523;-81
2023/02/16 00:16:24;;;;;;;13.97;8.30;;;0.10;99.90;;;0.92;100.00;99169.88;5003623;28;20551;-81
2023/02/16 00:18:54;;;;;;;17.17;10.50;;;0.10;99.90;;;0.92;100.00;99162.16;5004017;28;20467;-81
2023/02/16 00:21:24;;;;;;;15.50;9.33;;;0.10;99.90;;;0.92;100.00;99168.16;5003545;28;20485;-81
2023/02/16 00:23:54;;;;;;;13.77;9.00;;;0.20;99.90;;;0.92;100.00;99168.16;5001907;28;20461;-81
2023/02/16 00:26:29;;;;;;;15.80;9.20;;;0.10;99.90;;;0.83;100.00;99173.06;5003501;28;21050;-81
2023/02/16 00:28:59;;;;;;;19.60;8.23;;;0.10;99.90;;;0.81;100.00;99172.31;5004657;28;20564;-81
2023/02/16 00:31:31;;;;;;;16.60;8.60;;;0.00;99.90;;;0.78;100.00;99169.94;5001591;28;20475;-81
2023/02/16 00:34:25;;;;;;;14.27;8.97;;;0.00;99.90;;;0.75;100.00;99167.56;5004033;28;20459;-81
2023/02/16 00:36:54;;;;;;;16.40;9.83;;;-0.10;99.90;;;0.81;100.00;99162.84;5001254;28;20527;-81
2023/02/16 00:39:25;;;;;;;13.17;8.37;;;0.10;99.90;;;0.82;100.00;99164.50;5003210;28;20469;-80
2023/02/16 00:42:00;;;;;;;15.80;8.60;;;0.10;99.90;;;0.78;100.00;99160.47;5004738;28;20932;-80
2023/02/16 00:44:37;;;;;;;13.63;7.90;;;0.00;99.90;;;0.73;100.00;99157.38;5005537;28;20485;-81
2023/02/16 00:47:20;;;;;;;18.43;8.10;;;0.00;99.90;;;0.69;100.00;99157.69;5004789;28;21057;-81
2023/02/16 00:49:52;;;;;;;14.83;9.00;;;-0.10;99.90;;;0.68;100.00;99156.84;5006062;28;20964;-81
2023/02/16 00:52:33;;;;;;;14.93;9.73;;;-0.10;99.90;;;0.68;100.00;99159.41;5006044;28;20546;-81
2023/02/16 00:55:06;;;;;;;13.93;9.63;;;-0.10;99.90;;;0.64;100.00;99160.53;5006206;28;20812;-81
2023/02/16 00:57:42;;;;;;;17.13;9.70;;;-0.20;99.90;;;0.61;100.00;99160.72;5006972;28;20512;-81
2023/02/16 01:00:20;;;;;;;18.90;10.00;;;-0.20;99.90;;;0.63;100.00;99158.03;5004683;28;20471;-80
2023/02/16 01:02:52;;;;;;;15.50;8.60;;;-0.20;99.90;;;0.67;100.00;99155.19;5006122;28;20544;-81
2023/02/16 01:05:22;;;;;;;16.77;8.80;;;0.00;99.90;;;0.61;100.00;99158.16;5005565;28;20981;-81
2023/02/16 01:13:31;;;;;;;14.13;8.53;;;-0.30;99.90;;;0.50;100.00;99153.69;5003570;28;20503;-81
2023/02/16 01:16:01;;;;;;;21.90;8.40;;;-0.30;99.90;;;0.55;100.00;99153.41;5004614;28;20473;-81
2023/02/16 01:18:32;;;;;;;15.70;8.53;;;-0.20;99.90;;;0.58;100.00;99152.38;5005462;28;20467;-81
2023/02/16 01:21:02;;;;;;;23.10;8.20;;;-0.20;99.90;;;0.60;100.00;99153.94;5003021;28;20464;-81
2023/02/16 01:23:32;;;;;;;18.07;9.77;;;-0.20;99.90;;;0.59;100.00;99149.69;5001735;28;20464;-80
2023/02/16 01:26:02;;;;;;;15.70;8.40;;;-0.20;99.90;;;0.58;100.00;99149.81;5002389;28;20532;-82
2023/02/16 01:28:36;;;;;;;13.43;8.30;;;-0.20;99.90;;;0.52;100.00;99147.63;5003142;28;20472;-81
2023/02/16 01:31:06;;;;;;;12.30;8.70;;;-0.20;99.90;;;0.52;100.00;99149.25;5004572;28;20464;-81
2023/02/16 01:33:36;;;;;;;14.60;8.47;;;-0.30;99.90;;;0.52;100.00;99151.84;5003251;28;20464;-80
2023/02/16 01:36:24;;;;;;;15.53;8.77;;;-0.20;99.90;;;0.50;100.00;99145.97;5003742;28;20496;-81
2023/02/16 01:38:54;;;;;;;15.67;8.77;;;-0.30;99.90;;;0.53;100.00;99147.50;5001992;28;20461;-81
2023/02/16 01:41:44;;;;;;;14.50;8.80;;;-0.30;99.90;;;0.52;100.00;99139.91;5001411;28;20506;-81
2023/02/16 01:44:21;;;;;;;19.03;8.67;;;-0.40;99.90;;;0.52;100.00;99141.53;5004376;28;20465;-81
2023/02/16 01:46:56;;;;;;;17.00;8.70;;;-0.30;99.90;;;0.55;100.00;99139.72;5004525;28;20546;-80
2023/02/16 01:49:25;;;;;;;16.73;8.27;;;-0.20;99.90;;;0.52;100.00;99143.31;5005213;28;20476;-81
2023/02/16 01:52:05;;;;;;;15.77;8.43;;;-0.30;99.90;;;0.50;100.00;99135.69;5004681;28;21013;-81
2023/02/16 01:54:44;;;;;;;16.43;8.70;;;-0.30;99.90;;;0.53;100.00;99142.38;5003991;28;20529;-81
2023/02/16 01:57:31;;;;;;;16.20;9.00;;;-0.20;99.90;;;0.47;100.00;99135.06;5002196;28;20914;-81
2023/02/16 02:00:26;;;;;;;19.93;9.20;;;-0.30;99.90;;;0.42;100.00;99140.47;5001497;28;20527;-81
2023/02/16 02:05:33;;;;;;;13.73;8.60;;;-0.40;99.90;;;0.40;100.00;99138.94;5001354;28;20471;-81
2023/02/16 02:05:49;;;;;;;17.17;8.40;;;-0.40;99.90;;;0.38;100.00;99126.16;5002676;28;20499;-81
2023/02/16 02:08:33;;;;;;;12.47;8.50;;;-0.40;99.90;;;0.39;100.00;99127.81;5003958;28;20451;-81
2023/02/16 02:11:09;;;;;;;12.73;7.63;;;-0.40;99.90;;;0.37;100.00;99126.25;5004980;28;20965;-81
2023/02/16 02:13:45;;;;;;;16.27;8.60;;;-0.50;99.90;;;0.35;100.00;99115.22;5001702;28;20514;-81
2023/02/16 02:16:21;;;;;;;11.90;7.87;;;-0.50;99.90;;;0.35;100.00;99120.38;5002473;28;20473;-81
2023/02/16 02:18:51;;;;;;;16.40;8.40;;;-0.50;99.90;;;0.36;100.00;99120.28;5007151;28;20470;-80
2023/02/16 02:25:56;;;;;;;17.93;8.40;;;-0.50;99.90;;;0.17;100.00;99112.09;5005861;28;20470;-81
2023/02/16 02:28:35;;;;;;;16.33;7.80;;;-0.70;99.90;;;0.17;100.00;99109.53;5005556;28;20471;-81
2023/02/16 02:31:14;;;;;;;13.73;8.60;;;-0.60;99.90;;;0.19;100.00;99110.25;5003953;28;21047;-81
2023/02/16 02:34:03;;;;;;;13.30;7.23;;;-0.60;99.90;;;0.21;100.00;99105.81;5005688;28;20470;-81
2023/02/16 02:36:42;;;;;;;12.23;7.00;;;-0.60;99.90;;;0.18;100.00;99108.56;5005876;28;20858;-81
2023/02/16 02:39:30;;;;;;;17.33;8.33;;;-0.60;99.90;;;0.14;100.00;99106.31;5004780;28;20457;-81
2023/02/16 02:42:09;;;;;;;18.73;9.30;;;-0.60;99.90;;;0.13;100.00;99109.81;5003999;28;20462;-82
2023/02/16 02:44:46;;;;;;;13.47;7.70;;;-0.60;99.90;;;0.16;100.00;99110.44;5005557;28;20825;-81
2023/02/16 02:47:17;;;;;;;13.00;8.47;;;-0.60;99.90;;;0.16;100.00;99112.19;5007453;28;20495;-81
2023/02/16 02:49:53;;;;;;;14.13;8.40;;;-0.60;99.90;;;0.15;100.00;99113.09;5008265;28;20480;-81
2023/02/16 02:52:23;;;;;;;12.50;7.90;;;-0.60;99.90;;;0.08;100.00;99111.81;5005222;28;20471;-80
2023/02/16 03:00:43;;;;;;;14.23;8.37;;;-0.70;99.90;;;0.03;100.00;99095.88;4995074;28;20549;-81
2023/02/16 03:03:23;;;;;;;16.67;8.17;;;-0.80;99.90;;;0.04;100.00;99108.59;5006570;28;20547;-81
2023/02/16 03:06:08;;;;;;;20.23;8.40;;;-0.70;99.90;;;0.02;100.00;99100.19;5007282;28;20460;-80
2023/02/16 03:08:44;;;;;;;13.40;8.00;;;-0.80;99.90;;;-0.02;100.00;99103.84;5006739;28;20476;-81
2023/02/16 03:14:22;;;;;;;13.10;7.47;;;-0.90;99.90;;;-0.08;100.00;99091.38;4980911;28;20979;-81
2023/02/16 03:31:16;;;;;;;20.00;9.43;;;-1.00;99.90;;;-0.23;100.00;99105.16;5005635;28;20923;-81
2023/02/16 03:33:53;;;;;;;16.97;9.60;;;-1.00;99.90;;;-0.25;100.00;99105.28;5005503;28;20527;-81
2023/02/16 03:36:25;;;;;;;19.40;9.87;;;-1.10;99.90;;;-0.21;100.00;99095.63;5006396;28;20499;-81
2023/02/16 03:38:57;;;;;;;14.40;8.50;;;-1.00;99.90;;;-0.17;100.00;99095.34;5006938;28;20470;-81
2023/02/16 03:41:32;;;;;;;15.73;8.80;;;-1.00;99.90;;;-0.14;100.00;99086.63;5004641;28;20500;-81
2023/02/16 03:44:02;;;;;;;16.27;8.70;;;-0.90;99.90;;;-0.15;100.00;99090.13;5003071;28;20466;-81
2023/02/16 03:46:32;;;;;;;13.53;8.60;;;-0.90;99.90;;;-0.25;100.00;99089.03;5005455;28;20521;-81
2023/02/16 03:49:03;;;;;;;21.20;8.63;;;-1.00;99.90;;;-0.26;100.00;99093.34;5002214;28;20927;-81
2023/02/16 03:51:33;;;;;;;15.90;9.97;;;-1.10;99.90;;;-0.34;100.00;99089.56;5002533;28;20481;-81
2023/02/16 03:54:03;;;;;;;15.43;8.53;;;-1.20;99.90;;;-0.38;100.00;99083.78;5003880;28;20470;-81
2023/02/16 03:56:34;;;;;;;16.90;9.40;;;-1.20;99.90;;;-0.34;100.00;99090.41;5007051;28;20481;-81
2023/02/16 03:59:04;;;;;;;18.20;9.27;;;-1.20;99.90;;;-0.29;100.00;99088.41;5005733;28;20826;-81
2023/02/16 04:01:34;;;;;;;16.60;9.03;;;-1.10;99.90;;;-0.26;100.00;99085.63;5004318;28;20566;-82
2023/02/16 04:04:06;;;;;;;14.10;8.53;;;-1.10;99.90;;;-0.26;100.00;99082.22;5006572;28;21085;-76
2023/02/16 04:06:37;;;;;;;16.80;9.00;;;-1.00;99.90;;;-0.25;100.00;99084.72;5004613;28;20463;-81
2023/02/16 04:09:07;;;;;;;18.40;9.20;;;-1.00;99.90;;;-0.25;100.00;99083.91;5003755;28;20970;-82
2023/02/16 04:14:23;;;;;;;16.40;9.70;;;-0.90;99.90;;;-0.23;100.00;99080.31;4999475;28;20555;-81
2023/02/16 04:16:54;;;;;;;18.57;9.73;;;-1.00;99.90;;;-0.21;100.00;99085.38;5003258;28;20474;-80
2023/02/16 04:19:26;;;;;;;18.50;9.50;;;-1.00;99.90;;;-0.25;100.00;99083.91;5004249;28;20559;-80
2023/02/16 04:21:55;;;;;;;20.40;9.90;;;-1.00;99.90;;;-0.23;100.00;99087.19;5002621;28;20474;-80
2023/02/16 04:24:25;;;;;;;24.00;10.43;;;-1.00;99.90;;;-0.23;100.00;99093.16;5007031;28;20459;-81
2023/02/16 04:26:56;;;;;;;17.90;9.00;;;-1.00;99.90;;;-0.19;100.00;99093.78;5006300;28;20487;-81
2023/02/16 04:29:28;;;;;;;16.30;10.07;;;-0.90;99.90;;;-0.20;100.00;99098.09;5007749;28;20490;-81
2023/02/16 04:31:58;;;;;;;13.70;8.43;;;-0.90;99.90;;;-0.21;100.00;99095.63;5005720;28;20472;-80
2023/02/16 04:34:29;;;;;;;17.70;9.93;;;-0.90;99.90;;;-0.24;100.00;99103.50;5003688;28;20507;-81
2023/02/16 04:36:59;;;;;;;15.00;9.10;;;-1.00;99.90;;;-0.28;100.00;99099.50;5005707;28;20463;-81
2023/02/16 04:39:29;;;;;;;17.70;9.50;;;-1.10;99.90;;;-0.28;100.00;99102.91;5002756;28;20464;-81
2023/02/16 04:41:58;;;;;;;15.23;9.07;;;-1.10;99.90;;;-0.28;100.00;99100.34;5005188;28;20470;-75
2023/02/16 04:44:28;;;;;;;16.40;9.40;;;-1.00;99.90;;;-0.29;100.00;99100.41;5001199;28;20477;-81
2023/02/16 04:46:58;;;;;;;18.73;9.43;;;-1.10;99.90;;;-0.29;100.00;99097.84;5000926;28;20818;-81
2023/02/16 04:49:30;;;;;;;17.27;9.50;;;-1.00;99.90;;;-0.28;100.00;99100.34;5002579;28;20506;-80
2023/02/16 04:52:02;;;;;;;16.93;9.13;;;-1.00;99.90;;;-0.28;100.00;99090.06;5005434;28;20470;-81
2023/02/16 04:54:34;;;;;;;21.03;10.60;;;-1.00;99.90;;;-0.31;100.00;99105.63;5003979;28;20501;-81
2023/02/16 04:57:05;;;;;;;19.57;10.70;;;-1.10;99.90;;;-0.31;100.00;99099.69;5004069;28;20870;-81
2023/02/16 04:59:34;;;;;;;22.97;9.70;;;-1.00;99.90;;;-0.31;100.00;99095.34;5004790;28;20549;-81
2023/02/16 05:02:05;;;;;;;14.90;9.47;;;-1.00;99.90;;;-0.37;100.00;99094.91;5006561;28;20464;-81
2023/02/16 05:04:37;;;;;;;17.30;9.50;;;-1.10;99.90;;;-0.42;100.00;99102.06;5004827;28;20824;-81
2023/02/16 05:07:07;;;;;;;16.40;9.63;;;-1.20;99.90;;;-0.46;100.00;99100.59;5005742;28;20472;-81
2023/02/16 05:09:38;;;;;;;16.17;9.00;;;-1.30;99.90;;;-0.45;100.00;99097.94;5004748;28;20471;-81
2023/02/16 05:14:55;;;;;;;17.37;8.77;;;-1.30;99.90;;;-0.48;100.00;99097.28;5005372;28;20952;-81
2023/02/16 05:17:27;;;;;;;16.77;8.63;;;-1.30;99.90;;;-0.52;100.00;99102.59;5005587;28;20471;-81
2023/02/16 05:20:00;;;;;;;14.67;8.27;;;-1.30;99.90;;;-0.50;100.00;99105.09;5005422;28;20473;-80
2023/02/16 05:22:33;;;;;;;16.30;9.50;;;-1.30;99.90;;;-0.52;100.00;99109.47;5000442;28;21404;-76
2023/02/16 05:25:04;;;;;;;17.47;9.63;;;-1.30;99.90;;;-0.47;100.00;99111.78;5003789;28;20459;-81
2023/02/16 05:27:34;;;;;;;24.80;9.50;;;-1.20;99.90;;;-0.48;100.00;99117.84;5001441;28;20571;-81
2023/02/16 05:30:05;;;;;;;16.63;9.27;;;-1.20;99.90;;;-0.51;100.00;99113.72;4999829;28;22653;-81
2023/02/16 05:32:34;;;;;;;18.37;8.53;;;-1.30;99.90;;;-0.53;100.00;99108.69;5001217;28;20475;-75
2023/02/16 05:35:06;;;;;;;22.53;10.43;;;-1.30;99.90;;;-0.55;100.00;99109.66;5002149;28;20601;-81
2023/02/16 05:37:34;;;;;;;16.80;8.77;;;-1.30;99.90;;;-0.53;100.00;99115.56;4999700;28;20478;-81
2023/02/16 05:40:06;;;;;;;22.17;12.10;;;-1.30;99.90;;;-0.50;100.00;99115.38;4999097;28;20499;-81
2023/02/16 05:42:35;;;;;;;16.87;9.70;;;-1.20;99.90;;;-0.54;100.00;99111.31;5006570;28;20894;-80
2023/02/16 05:45:05;;;;;;;21.70;9.80;;;-1.30;99.90;;;-0.59;100.00;99116.72;5007384;28;20549;-80
2023/02/16 05:47:34;;;;;;;16.93;9.80;;;-1.40;99.90;;;-0.59;100.00;99121.88;5007708;28;20469;-80
2023/02/16 05:50:07;;;;;;;15.47;9.20;;;-1.40;99.90;;;-0.63;100.00;99123.00;5008492;28;20580;-80
2023/02/16 05:52:36;;;;;;;24.87;9.23;;;-1.50;99.90;;;-0.63;100.00;99117.03;5011507;28;20976;-80
2023/02/16 05:55:07;;;;;;;17.23;9.37;;;-1.50;99.90;;;-0.69;100.00;99125.91;5009897;28;20945;-80
2023/02/16 05:57:37;;;;;;;19.47;9.17;;;-1.50;99.90;;;-0.76;100.00;99134.88;5008666;28;20486;-80
2023/02/16 06:00:10;;;;;;;17.13;9.30;;;-1.60;99.90;;;-0.78;100.00;99125.63;5010923;28;20466;-80
2023/02/16 06:02:39;;;;;;;16.73;8.40;;;-1.60;99.90;;;-0.79;100.00;99132.50;5009911;28;20466;-80
2023/02/16 06:05:10;;;;;;;16.37;8.70;;;-1.70;99.90;;;-0.75;100.00;99128.00;5009413;28;20476;-80
2023/02/16 06:07:40;;;;;;;17.17;9.70;;;-1.60;99.90;;;-0.85;100.00;99129.44;5010050;28;20875;-80
2023/02/16 06:10:11;;;;;;;15.73;9.40;;;-1.70;99.90;;;-0.82;100.00;99132.66;5008248;28;20485;-80
2023/02/16 06:12:41;;;;;;;18.90;9.93;;;-1.70;99.90;;;-0.82;100.00;99132.66;5009369;28;20505;-80
2023/02/16 06:15:13;;;;;;;17.63;9.33;;;-1.60;99.90;;;-0.82;100.00;99134.41;5009891;28;20465;-80
2023/02/16 06:17:43;;;;;;;15.00;9.00;;;-1.60;99.90;;;-0.86;100.00;99130.34;5010306;28;20913;-80
2023/02/16 06:20:15;;;;;;;14.80;9.00;;;-1.60;99.90;;;-0.82;100.00;99130.09;5009802;28;20461;-80
2023/02/16 06:22:44;;;;;;;19.33;10.40;;;-1.60;99.90;;;-0.83;100.00;99128.44;5009894;28;20475;-79
2023/02/16 06:25:14;;;;;;;20.93;10.50;;;-1.60;99.90;;;-0.86;100.00;99122.66;5009805;28;20469;-79
2023/02/16 06:27:44;;;;;;;21.60;11.17;;;-1.60;99.90;;;-0.88;100.00;99125.34;5009950;28;20457;-80
2023/02/16 06:30:15;;;;;;;17.10;9.73;;;-1.70;99.90;;;-0.84;100.00;99131.94;5010258;28;21081;-80
2023/02/16 06:32:45;;;;;;;17.23;9.90;;;-1.60;99.90;;;-0.82;100.00;99135.25;5008417;28;20481;-80
2023/02/16 06:35:17;;;;;;;16.63;9.07;;;-1.60;99.90;;;-0.85;100.00;99125.16;5009734;28;20580;-80
2023/02/16 06:37:46;;;;;;;19.10;9.97;;;-1.60;99.90;;;-0.86;100.00;99127.78;5007057;28;21216;-80
2023/02/16 06:40:18;;;;;;;20.87;10.63;;;-1.50;99.90;;;-0.88;100.00;99132.19;5010144;28;20552;-80
2023/02/16 06:42:48;;;;;;;18.73;10.83;;;-1.60;99.90;;;-0.88;100.00;99135.59;5009712;28;21088;-80
2023/02/16 06:45:18;;;;;;;23.43;9.37;;;-1.60;99.90;;;-0.89;100.00;99130.53;5009873;28;20494;-80
2023/02/16 06:47:47;;;;;;;17.73;10.10;;;-1.60;99.90;;;-0.94;100.00;99138.53;5009822;28;20552;-79
2023/02/16 06:50:18;;;;;;;18.57;9.93;;;-1.80;99.90;;;-0.97;100.00;99141.25;5009802;28;20501;-80
2023/02/16 06:52:48;;;;;;;19.13;8.90;;;-1.80;99.90;;;-0.93;100.00;99141.91;5008858;28;20977;-79
2023/02/16 06:55:19;;;;;;;18.00;9.40;;;-1.80;99.90;;;-0.96;100.00;99139.50;5008510;28;20549;-79
2023/02/16 06:57:49;;;;;;;25.10;10.17;;;-1.80;99.90;;;-0.95;100.00;99134.28;5009634;28;20463;-80
2023/02/16 07:00:20;;;;;;;17.83;8.90;;;-1.70;99.90;;;-0.95;100.00;99136.03;5008522;28;20530;-79
2023/02/16 07:02:50;;;;;;;21.00;10.80;;;-1.70;99.90;;;-1.02;100.00;99138.13;5009640;28;20463;-80
2023/02/16 07:05:21;;;;;;;20.20;10.57;;;-1.80;99.90;;;-1.05;100.00;99139.13;5008980;28;20493;-80
2023/02/16 07:07:50;;;;;;;16.70;9.83;;;-1.80;99.90;;;-1.02;100.00;99140.69;5009724;28;20552;-79
2023/02/16 07:10:20;;;;;;;18.17;10.37;;;-1.80;99.90;;;-0.98;100.00;99146.47;5007531;28;20506;-80
2023/02/16 07:12:50;;;;;;;16.80;9.57;;;-1.80;99.90;;;-0.95;100.00;99154.81;5009090;28;20577;-79
2023/02/16 07:15:21;;;;;;;20.00;10.77;;;-1.70;99.90;;;-0.95;100.00;99154.81;5009631;28;20467;-80
2023/02/16 07:17:51;;;;;;;18.67;10.03;;;-1.70;99.90;;;-0.97;100.00;99154.06;5008229;28;20926;-80
2023/02/16 07:20:22;;;;;;;16.77;10.77;;;-1.60;99.90;;;-0.95;100.00;99157.41;5007648;28;21018;-79
2023/02/16 07:22:54;;;;;;;26.97;10.23;;;-1.60;99.90;;;-0.93;100.00;99153.00;5009103;28;20864;-79
2023/02/16 07:25:25;;;;;;;17.97;10.90;;;-1.70;99.90;;;-0.96;100.00;99148.03;5008499;28;20488;-80
2023/02/16 07:27:54;;;;;;;20.27;10.10;;;-1.80;99.90;;;-0.93;100.00;99158.13;5006609;28;20459;-80
2023/02/16 07:30:24;;;;;;;18.83;10.67;;;-1.70;99.90;;;-0.89;100.00;99162.16;5008346;28;20494;-79
2023/02/16 07:32:54;;;;;;;20.80;10.00;;;-1.70;99.90;;;-0.89;100.00;99157.03;5008584;28;20891;-80
2023/02/16 07:35:25;;;;;;;22.73;11.20;;;-1.60;99.90;;;-0.90;100.00;99155.38;5007290;28;20488;-79
2023/02/16 07:37:53;;;;;;;17.10;9.83;;;-1.60;99.90;;;-0.89;100.00;99149.34;5009486;28;20474;-80
2023/02/16 07:40:23;;;;;;;22.23;11.33;;;-1.60;99.90;;;-0.87;100.00;99155.22;5006460;28;20467;-80
2023/02/16 07:42:52;;;;;;;19.57;10.30;;;-1.60;99.90;;;-0.83;100.00;99151.53;5007854;28;20521;-79
2023/02/16 07:45:21;;;;;;;19.53;9.97;;;-1.50;99.90;;;-0.81;100.00;99151.47;5009072;28;20471;-79
2023/02/16 07:47:50;;;;;;;14.90;9.10;;;-1.40;99.90;;;-0.82;100.00;99149.81;5008349;28;20477;-80
2023/02/16 07:50:20;;;;;;;15.10;8.83;;;-1.50;99.90;;;-0.80;100.00;99159.06;5008121;28;20581;-80
2023/02/16 07:52:51;;;;;;;19.13;10.60;;;-1.50;99.90;;;-0.78;100.00;99159.00;5008833;28;20477;-80
2023/02/16 07:55:21;;;;;;;23.03;10.80;;;-1.50;99.90;;;-0.78;100.00;99164.94;5008617;28;20470;-80
2023/02/16 07:57:54;;;;;;;21.27;11.03;;;-1.50;99.90;;;-0.76;100.00;99175.13;5007284;28;20899;-79
2023/02/16 08:00:24;;;;;;;19.67;10.30;;;-1.50;99.90;;;-0.78;100.00;99164.94;5008715;28;20467;-80
2023/02/16 08:02:53;;;;;;;19.90;10.87;;;-1.50;99.90;;;-0.74;100.00;99171.56;5009165;28;20471;-80
2023/02/16 08:05:24;;;;;;;23.57;11.80;;;-1.40;99.90;;;-0.75;100.00;99172.47;5007694;28;20474;-80
2023/02/16 08:07:55;;;;;;;19.33;10.27;;;-1.50;99.90;;;-0.70;100.00;99173.06;5007099;28;20895;-80
2023/02/16 08:10:25;;;;;;;18.90;10.30;;;-1.30;99.90;;;-0.69;100.00;99178.97;5007716;28;20495;-79
2023/02/16 08:12:54;;;;;;;22.60;11.40;;;-1.30;99.90;;;-0.68;100.00;99184.03;5007377;28;20521;-80
2023/02/16 08:15:23;;;;;;;22.43;11.00;;;-1.30;99.90;;;-0.65;100.00;99172.75;5006860;28;20477;-79
2023/02/16 08:17:53;;;;;;;22.70;12.07;;;-1.30;99.90;;;-0.58;100.00;99176.63;5008365;28;21382;-79
2023/02/16 08:20:22;;;;;;;23.47;12.40;;;-1.20;99.90;;;-0.55;100.00;99179.84;5008581;28;20470;-79
2023/02/16 08:23:13;;;;;;;21.37;10.80;;;-1.20;99.90;;;-0.48;100.00;99182.03;5007762;28;20814;-79
2023/02/16 08:25:44;;;;;;;19.53;11.67;;;-1.00;99.90;;;-0.45;100.00;99181.88;5008957;28;20980;-79
2023/02/16 08:28:14;;;;;;;20.17;10.73;;;-1.00;99.90;;;-0.41;100.00;99181.59;5008059;28;21224;-80
2023/02/16 08:30:44;;;;;;;26.20;12.33;;;-1.00;99.90;;;-0.35;100.00;99180.44;5007982;28;20917;-80
2023/02/16 08:33:14;;;;;;;19.60;11.70;;;-1.00;99.90;;;-0.31;100.00;99171.63;5007412;28;20962;-80
2023/02/16 08:35:44;;;;;;;35.70;13.40;;;-0.90;99.90;;;-0.25;100.00;99176.41;5007152;28;20981;-80
2023/02/16 08:38:16;;;;;;;25.27;13.67;;;-0.90;99.90;;;-0.21;100.00;99177.88;5007514;28;20467;-79
2023/02/16 08:40:50;;;;;;;30.97;13.07;;;-0.80;99.90;;;-0.11;100.00;99182.38;5006931;28;20520;-80
2023/02/16 08:43:21;;;;;;;25.43;13.27;;;-0.70;99.90;;;-0.02;100.00;99180.97;5007333;28;20891;-80
2023/02/16 08:45:52;;;;;;;29.43;11.87;;;-0.50;99.90;;;0.07;100.00;99177.81;5007859;28;20486;-80
2023/02/16 08:48:22;;;;;;;24.07;13.20;;;-0.50;99.90;;;0.16;100.00;99179.84;5006999;28;20465;-80
2023/02/16 08:50:53;;;;;;;29.23;12.80;;;-0.40;99.90;;;0.25;100.00;99169.00;5007839;28;20513;-80
2023/02/16 08:53:26;;;;;;;31.73;13.60;;;-0.30;99.90;;;0.33;100.00;99178.81;5007872;28;20513;-80
2023/02/16 08:55:56;;;;;;;25.07;13.67;;;-0.20;99.90;;;0.43;100.00;99185.03;5008414;28;20469;-80
2023/02/16 08:58:25;;;;;;;23.43;12.67;;;0.00;99.90;;;0.53;100.00;99178.38;5005829;28;20465;-79
2023/02/16 09:00:56;;;;;;;25.87;14.43;;;0.00;99.90;;;0.62;100.00;99184.72;5007311;28;20520;-80
2023/02/16 09:03:26;;;;;;;38.77;15.97;;;0.10;99.90;;;0.70;100.00;99182.47;5007513;28;20459;-80
2023/02/16 09:06:00;;;;;;;24.77;15.40;;;0.20;99.90;;;0.77;100.00;99184.56;5006805;28;20860;-80
2023/02/16 09:08:32;;;;;;;27.83;15.70;;;0.20;99.90;;;0.88;100.00;99176.16;5005727;28;20459;-80
2023/02/16 09:11:02;;;;;;;33.07;15.37;;;0.40;99.90;;;0.98;100.00;99174.63;5008330;28;20505;-79
2023/02/16 09:13:35;;;;;;;41.37;17.73;;;0.40;99.90;;;1.07;100.00;99176.63;5006624;28;20535;-80
2023/02/16 09:16:06;;;;;;;25.03;16.00;;;0.60;99.90;;;1.16;100.00;99173.44;5007259;28;20541;-80
2023/02/16 09:18:36;;;;;;;32.23;18.23;;;0.70;99.90;;;1.26;100.00;99169.34;5005881;28;20479;-80
2023/02/16 09:21:58;;;;;;;29.60;17.00;;;0.80;99.90;;;1.40;100.00;99169.25;5005715;28;20550;-79
2023/02/16 09:24:30;;;;;;;31.80;15.70;;;1.00;99.90;;;1.51;100.00;99169.38;4995235;28;20551;-80
2023/02/16 09:27:00;;;;;;;33.03;15.67;;;1.10;99.90;;;1.63;100.00;99164.31;5007087;28;20544;-80
2023/02/16 09:29:31;;;;;;;33.97;17.87;;;1.20;99.90;;;1.77;100.00;99164.22;5006050;28;20463;-79
2023/02/16 09:32:02;;;;;;;35.70;17.20;;;1.40;99.90;;;1.87;100.00;99162.66;5007465;28;20844;-80
2023/02/16 09:34:32;;;;;;;38.83;20.80;;;1.50;99.90;;;2.01;100.00;99157.38;5006809;28;20510;-80
2023/02/16 09:37:03;;;;;;;38.50;18.67;;;1.60;99.90;;;2.15;100.00;99154.69;5006346;28;20478;-80
2023/02/16 09:39:33;;;;;;;34.17;18.20;;;1.80;99.90;;;2.24;100.00;99148.88;5006170;28;20463;-80
2023/02/16 09:42:28;;;;;;;38.57;19.30;;;1.90;99.90;;;2.37;100.00;99156.56;5006445;28;20517;-79
2023/02/16 09:45:08;;;;;;;40.87;19.63;;;2.00;99.90;;;2.46;100.00;99155.94;5007245;28;20494;-79
2023/02/16 09:47:41;;;;;;;37.77;19.70;;;2.10;99.90;;;2.54;100.00;99153.59;5007307;28;20474;-80
2023/02/16 09:50:18;;;;;;;36.23;18.70;;;2.20;99.90;;;2.67;100.00;99156.16;5006227;28;20566;-80
2023/02/16 09:53:13;;;;;;;44.90;20.67;;;2.30;99.90;;;2.81;100.00;99156.00;5006005;28;20465;-80
2023/02/16 09:55:58;;;;;;;38.70;20.33;;;2.40;99.90;;;2.86;100.00;99149.53;5006077;28;21386;-79
2023/02/16 09:58:37;;;;;;;38.70;18.47;;;2.50;99.90;;;3.00;100.00;99151.94;5005237;28;20522;-80
2023/02/16 10:01:21;;;;;;;36.43;18.23;;;2.70;99.90;;;3.12;100.00;99142.47;5005237;28;20589;-80
2023/02/16 10:04:11;;;;;;;40.13;21.50;;;2.80;99.90;;;3.19;100.00;99141.09;5006482;28;20460;-80
2023/02/16 10:07:02;;;;;;;34.03;18.77;;;2.80;99.90;;;3.27;100.00;99146.50;5006192;28;20469;-80
2023/02/16 10:09:34;;;;;;;35.73;19.00;;;2.90;99.90;;;3.34;100.00;99145.09;5006033;28;20499;-80
2023/02/16 10:12:14;;;;;;;35.43;19.43;;;3.00;99.90;;;3.38;100.00;99141.34;5005844;28;20509;-80
2023/02/16 10:14:52;;;;;;;39.13;19.30;;;3.00;99.90;;;3.47;100.00;99140.66;5006093;28;20471;-80
2023/02/16 10:17:32;;;;;;;29.40;17.40;;;3.20;99.90;;;3.60;100.00;99139.75;5006802;28;21001;-80
2023/02/16 10:20:12;;;;;;;30.07;16.70;;;3.20;99.90;;;3.65;100.00;99146.19;5005371;28;20474;-80
2023/02/16 10:22:48;;;;;;;36.33;18.87;;;3.30;99.90;;;3.69;100.00;99139.84;5005761;28;20482;-80
2023/02/16 10:25:25;;;;;;;35.87;19.13;;;3.40;99.90;;;3.77;100.00;99141.88;5006108;28;20978;-80
2023/02/16 10:28:16;;;;;;;36.07;18.20;;;3.40;99.90;;;3.82;100.00;99134.56;5006112;28;20544;-80
2023/02/16 10:30:53;;;;;;;34.37;17.33;;;3.50;99.90;;;3.86;100.00;99133.41;5005943;28;20588;-80
2023/02/16 10:33:40;;;;;;;31.47;16.20;;;3.60;99.90;;;3.89;100.00;99113.28;5005662;28;20988;-80
2023/02/16 10:36:24;;;;;;;30.50;16.60;;;3.50;99.90;;;3.98;100.00;99119.53;5006392;28;20572;-80
2023/02/16 10:39:07;;;;;;;31.60;17.40;;;3.60;99.90;;;4.05;100.00;99118.09;5009161;28;20600;-79
2023/02/16 10:41:43;;;;;;;34.90;17.17;;;3.70;99.90;;;4.15;100.00;99124.22;5009521;28;20462;-79
2023/02/16 10:44:22;;;;;;;23.53;13.87;;;3.90;99.90;;;4.24;100.00;99126.06;5008426;28;20480;-80
2023/02/16 10:47:00;;;;;;;30.20;14.53;;;4.00;99.90;;;4.28;100.00;99129.25;5010376;28;20466;-80
2023/02/16 10:49:32;;;;;;;32.53;15.67;;;4.00;99.90;;;4.34;100.00;99126.97;5009503;28;20825;-80
2023/02/16 10:52:04;;;;;;;26.20;16.17;;;4.00;99.90;;;4.42;100.00;99123.78;5009826;28;20483;-80
2023/02/16 10:54:36;;;;;;;22.50;14.57;;;4.10;99.90;;;4.49;100.00;99122.38;5008776;28;20513;-80
2023/02/16 10:57:19;;;;;;;30.57;14.57;;;4.20;99.90;;;4.57;100.00;99127.75;5008702;28;20462;-80
2023/02/16 10:59:53;;;;;;;29.23;13.23;;;4.30;99.90;;;4.66;100.00;99121.00;5008648;28;20974;-80
2023/02/16 11:02:27;;;;;;;29.90;14.20;;;4.40;99.90;;;4.70;100.00;99127.59;5008549;28;21120;-80
2023/02/16 11:05:00;;;;;;;25.60;13.23;;;4.40;99.90;;;4.77;100.00;99124.38;5008605;28;20556;-80
2023/02/16 11:07:32;;;;;;;17.77;10.83;;;4.40;99.90;;;4.82;100.00;99124.84;5009505;28;20502;-80
2023/02/16 11:10:21;;;;;;;19.43;11.50;;;4.50;99.90;;;4.89;100.00;99118.22;5009933;28;20817;-80
2023/02/16 11:12:57;;;;;;;17.47;11.00;;;4.60;99.90;;;4.95;100.00;99129.84;5009950;28;20466;-80
2023/02/16 11:15:29;;;;;;;18.40;11.13;;;4.60;99.90;;;5.02;100.00;99121.47;5007826;28;20473;-80